Redmond, Oregon
Current Conditions -  °F | °C
As of 1:56 AM on Thursday 27 Nov 2014 (Local Time) from KRDM Reporting Station
Few Clouds Few Clouds  
Wind Chill: 12°   Ceiling: Unl
Heat Index: 12°   Visibility: 10mi
Dew Point: -1°   Wind: 15mph
Humidity: 41%   Direction: 130°SE
Pressure: 30.02"   Gusts: NA
Location:  44.27°N, 121.17°W
Report Text: KRDM 270956Z AUTO 13013KT 10SM FEW100 12/M01 A3002 RMK AO2 SLP159 T01221006
Loading
Personal Weather Stations






























Interactive Weather Map New forecast layout! Learn more

10-Day Weather Forecast

Advertisements
Track Severe Weather on mobile